Time,TemperatureF,DewpointF,PressureIn,WindDirection,WindDirectionDegrees,WindSpeedMPH,WindSpeedGustMPH,Humidity,HourlyPrecipIn,Conditions,Clouds,dailyrainin,SolarRadiationWatts/m^2,SoftwareType,DateUTC
2013-01-28 00:12:00,41.0,40.0,-100.00,South,183,7.0,12.0,95,0.02,,,0.21,0.000000,,2013-01-28 05:12:00,
2013-01-28 00:22:00,41.0,40.0,-100.00,South,183,7.0,12.0,95,0.02,,,0.21,0.000000,,2013-01-28 05:22:00,
2013-01-28 00:32:00,41.0,40.0,-100.00,South,183,7.0,12.0,95,0.02,,,0.21,0.000000,,2013-01-28 05:32:00,
2013-01-28 00:42:00,41.0,40.0,-100.00,South,183,7.0,12.0,95,0.02,,,0.21,0.000000,,2013-01-28 05:42:00,
2013-01-28 01:11:00,42.0,40.0,-100.00,South,180,9.0,15.0,92,0.01,,,0.22,0.000000,,2013-01-28 06:11:00,
2013-01-28 01:22:00,42.0,40.0,-100.00,South,180,9.0,15.0,92,0.01,,,0.22,0.000000,,2013-01-28 06:22:00,
2013-01-28 01:32:00,42.0,40.0,-100.00,South,180,9.0,15.0,92,0.01,,,0.22,0.000000,,2013-01-28 06:32:00,
2013-01-28 01:42:00,42.0,40.0,-100.00,South,180,9.0,15.0,92,0.01,,,0.22,0.000000,,2013-01-28 06:42:00,
2013-01-28 02:11:00,44.0,42.0,-100.00,SSW,196,8.0,16.0,91,0.00,,,0.22,0.000000,,2013-01-28 07:11:00,
2013-01-28 02:22:00,44.0,42.0,-100.00,SSW,196,8.0,16.0,91,0.00,,,0.22,0.000000,,2013-01-28 07:22:00,
2013-01-28 02:32:00,44.0,42.0,-100.00,SSW,196,8.0,16.0,91,0.00,,,0.22,0.000000,,2013-01-28 07:32:00,
2013-01-28 02:42:00,44.0,42.0,-100.00,SSW,196,8.0,16.0,91,0.00,,,0.22,0.000000,,2013-01-28 07:42:00,
2013-01-28 03:11:00,44.0,41.0,-100.00,SSW,202,7.0,14.0,90,0.00,,,0.22,0.000000,,2013-01-28 08:11:00,
2013-01-28 03:21:00,44.0,41.0,-100.00,SSW,202,7.0,14.0,90,0.00,,,0.22,0.000000,,2013-01-28 08:21:00,
2013-01-28 03:32:00,44.0,41.0,-100.00,SSW,202,7.0,14.0,90,0.00,,,0.22,0.000000,,2013-01-28 08:32:00,
2013-01-28 03:42:00,44.0,41.0,-100.00,SSW,202,7.0,14.0,90,0.00,,,0.22,0.000000,,2013-01-28 08:42:00,
2013-01-28 04:12:00,45.0,41.0,-100.00,SSW,199,10.0,18.0,87,0.00,,,0.22,0.000000,,2013-01-28 09:12:00,
2013-01-28 04:22:00,45.0,41.0,-100.00,SSW,199,10.0,18.0,87,0.00,,,0.22,0.000000,,2013-01-28 09:22:00,
2013-01-28 04:32:00,45.0,41.0,-100.00,SSW,199,10.0,18.0,87,0.00,,,0.22,0.000000,,2013-01-28 09:32:00,
2013-01-28 04:42:00,45.0,41.0,-100.00,SSW,199,10.0,18.0,87,0.00,,,0.22,0.000000,,2013-01-28 09:42:00,
2013-01-28 05:11:00,46.0,41.0,-100.00,SSW,197,10.0,19.0,84,0.00,,,0.22,0.000000,,2013-01-28 10:11:00,
2013-01-28 05:21:00,46.0,41.0,-100.00,SSW,197,10.0,19.0,84,0.00,,,0.22,0.000000,,2013-01-28 10:21:00,
2013-01-28 05:32:00,46.0,41.0,-100.00,SSW,197,10.0,19.0,84,0.00,,,0.22,0.000000,,2013-01-28 10:32:00,
2013-01-28 05:42:00,46.0,41.0,-100.00,SSW,197,10.0,19.0,84,0.00,,,0.22,0.000000,,2013-01-28 10:42:00,
2013-01-28 06:11:00,46.0,40.0,-100.00,SSW,200,11.0,18.0,80,0.00,,,0.22,0.000000,,2013-01-28 11:11:00,
2013-01-28 06:22:00,46.0,40.0,-100.00,SSW,200,11.0,18.0,80,0.00,,,0.22,0.000000,,2013-01-28 11:22:00,
2013-01-28 06:32:00,46.0,40.0,-100.00,SSW,200,11.0,18.0,80,0.00,,,0.22,0.000000,,2013-01-28 11:32:00,
2013-01-28 06:42:00,46.0,40.0,-100.00,SSW,200,11.0,18.0,80,0.00,,,0.22,0.000000,,2013-01-28 11:42:00,
2013-01-28 07:12:00,46.0,39.0,-100.00,SSW,199,12.0,21.0,76,0.00,,,0.22,0.000000,,2013-01-28 12:12:00,
2013-01-28 07:23:00,46.0,39.0,-100.00,SSW,199,12.0,21.0,76,0.00,,,0.22,0.000000,,2013-01-28 12:23:00,
2013-01-28 07:33:00,46.0,39.0,-100.00,SSW,199,12.0,21.0,76,0.00,,,0.22,0.000000,,2013-01-28 12:33:00,
2013-01-28 07:42:00,46.0,39.0,-100.00,SSW,199,12.0,21.0,76,0.00,,,0.22,0.000000,,2013-01-28 12:42:00,
2013-01-28 08:12:00,47.0,39.0,-100.00,SSW,200,11.0,20.0,74,0.00,,,0.22,0.000000,,2013-01-28 13:12:00,
2013-01-28 08:23:00,47.0,39.0,-100.00,SSW,200,11.0,20.0,74,0.00,,,0.22,0.000000,,2013-01-28 13:23:00,
2013-01-28 08:33:00,47.0,39.0,-100.00,SSW,200,11.0,20.0,74,0.00,,,0.22,0.000000,,2013-01-28 13:33:00,
2013-01-28 08:42:00,47.0,39.0,-100.00,SSW,200,11.0,20.0,74,0.00,,,0.22,0.000000,,2013-01-28 13:42:00,
2013-01-28 09:12:00,48.0,40.0,-100.00,SSW,205,11.0,21.0,74,0.00,,,0.22,13.000000,,2013-01-28 14:12:00,
2013-01-28 09:23:00,48.0,40.0,-100.00,SSW,205,11.0,21.0,74,0.00,,,0.22,13.000000,,2013-01-28 14:23:00,
2013-01-28 09:33:00,48.0,40.0,-100.00,SSW,205,11.0,21.0,74,0.00,,,0.22,13.000000,,2013-01-28 14:33:00,
2013-01-28 09:43:00,48.0,40.0,-100.00,SSW,205,11.0,21.0,74,0.00,,,0.22,13.000000,,2013-01-28 14:43:00,
2013-01-28 10:13:00,48.0,43.0,-100.00,SSW,202,9.0,21.0,82,0.01,,,0.23,18.000000,,2013-01-28 15:13:00,
2013-01-28 10:24:00,48.0,43.0,-100.00,SSW,202,9.0,21.0,82,0.01,,,0.23,18.000000,,2013-01-28 15:24:00,
2013-01-28 10:33:00,48.0,43.0,-100.00,SSW,202,9.0,21.0,82,0.01,,,0.23,18.000000,,2013-01-28 15:33:00,
2013-01-28 10:43:00,48.0,43.0,-100.00,SSW,202,9.0,21.0,82,0.01,,,0.23,18.000000,,2013-01-28 15:43:00,
2013-01-28 11:13:00,49.0,46.0,-100.00,SSW,204,8.0,15.0,89,0.02,,,0.25,25.000000,,2013-01-28 16:13:00,
2013-01-28 11:22:00,49.0,46.0,-100.00,SSW,204,8.0,15.0,89,0.02,,,0.25,25.000000,,2013-01-28 16:22:00,
2013-01-28 11:33:00,49.0,46.0,-100.00,SSW,204,8.0,15.0,89,0.02,,,0.25,25.000000,,2013-01-28 16:33:00,
2013-01-28 11:43:00,49.0,46.0,-100.00,SSW,204,8.0,15.0,89,0.02,,,0.25,25.000000,,2013-01-28 16:43:00,
2013-01-28 12:12:00,49.0,46.0,-100.00,SSW,196,9.0,20.0,91,0.00,,,0.25,40.000000,,2013-01-28 17:12:00,
2013-01-28 12:23:00,49.0,46.0,-100.00,SSW,196,9.0,20.0,91,0.00,,,0.25,40.000000,,2013-01-28 17:23:00,
2013-01-28 12:33:00,49.0,46.0,-100.00,SSW,196,9.0,20.0,91,0.00,,,0.25,40.000000,,2013-01-28 17:33:00,
2013-01-28 12:42:00,49.0,46.0,-100.00,SSW,196,9.0,20.0,91,0.00,,,0.25,40.000000,,2013-01-28 17:42:00,
2013-01-28 13:13:00,50.0,48.0,-100.00,SSW,207,9.0,21.0,92,0.01,,,0.26,51.000000,,2013-01-28 18:13:00,
2013-01-28 13:23:00,50.0,48.0,-100.00,SSW,207,9.0,21.0,92,0.01,,,0.26,51.000000,,2013-01-28 18:23:00,
2013-01-28 13:33:00,50.0,48.0,-100.00,SSW,207,9.0,21.0,92,0.01,,,0.26,51.000000,,2013-01-28 18:33:00,
2013-01-28 13:42:00,50.0,48.0,-100.00,SSW,207,9.0,21.0,92,0.01,,,0.26,51.000000,,2013-01-28 18:42:00,
2013-01-28 14:13:00,50.0,49.0,-100.00,SSW,202,8.0,16.0,95,0.12,,,0.38,57.000000,,2013-01-28 19:13:00,
2013-01-28 14:22:00,50.0,49.0,-100.00,SSW,202,8.0,16.0,95,0.12,,,0.38,57.000000,,2013-01-28 19:22:00,
2013-01-28 14:33:00,50.0,49.0,-100.00,SSW,202,8.0,16.0,95,0.12,,,0.38,57.000000,,2013-01-28 19:33:00,
2013-01-28 14:42:00,50.0,49.0,-100.00,SSW,202,8.0,16.0,95,0.12,,,0.38,57.000000,,2013-01-28 19:42:00,
2013-01-28 15:12:00,50.0,49.0,-100.00,SSW,202,9.0,16.0,96,0.00,,,0.38,52.000000,,2013-01-28 20:12:00,
2013-01-28 15:22:00,50.0,49.0,-100.00,SSW,202,9.0,16.0,96,0.00,,,0.38,52.000000,,2013-01-28 20:22:00,
2013-01-28 15:33:00,50.0,49.0,-100.00,SSW,202,9.0,16.0,96,0.00,,,0.38,52.000000,,2013-01-28 20:33:00,
2013-01-28 15:42:00,50.0,49.0,-100.00,SSW,202,9.0,16.0,96,0.00,,,0.38,52.000000,,2013-01-28 20:42:00,
2013-01-28 16:12:00,50.0,49.0,-100.00,SSW,205,7.0,16.0,96,0.01,,,0.39,43.000000,,2013-01-28 21:12:00,
2013-01-28 16:23:00,50.0,49.0,-100.00,SSW,205,7.0,16.0,96,0.01,,,0.39,43.000000,,2013-01-28 21:23:00,
2013-01-28 16:33:00,50.0,49.0,-100.00,SSW,205,7.0,16.0,96,0.01,,,0.39,43.000000,,2013-01-28 21:33:00,
2013-01-28 16:43:00,50.0,49.0,-100.00,SSW,205,7.0,16.0,96,0.01,,,0.39,43.000000,,2013-01-28 21:43:00,
2013-01-28 17:12:00,51.0,50.0,-100.00,SSW,199,7.0,16.0,96,0.00,,,0.39,23.000000,,2013-01-28 22:12:00,
2013-01-28 17:23:00,51.0,50.0,-100.00,SSW,199,7.0,16.0,96,0.00,,,0.39,23.000000,,2013-01-28 22:23:00,
2013-01-28 17:33:00,51.0,50.0,-100.00,SSW,199,7.0,16.0,96,0.00,,,0.39,23.000000,,2013-01-28 22:33:00,
2013-01-28 17:42:00,51.0,50.0,-100.00,SSW,199,7.0,16.0,96,0.00,,,0.39,23.000000,,2013-01-28 22:42:00,
2013-01-28 18:12:00,51.0,50.0,-100.00,SSW,197,7.0,13.0,97,0.00,,,0.39,7.000000,,2013-01-28 23:12:00,
2013-01-28 18:22:00,51.0,50.0,-100.00,SSW,197,7.0,13.0,97,0.00,,,0.39,7.000000,,2013-01-28 23:22:00,
2013-01-28 18:32:00,51.0,50.0,-100.00,SSW,197,7.0,13.0,97,0.00,,,0.39,7.000000,,2013-01-28 23:32:00,
2013-01-28 18:42:00,51.0,50.0,-100.00,SSW,197,7.0,13.0,97,0.00,,,0.39,7.000000,,2013-01-28 23:42:00,
2013-01-28 19:12:00,51.0,50.0,-100.00,SSW,200,8.0,13.0,97,0.00,,,0.38,0.000000,,2013-01-29 00:12:00,
2013-01-28 19:22:00,51.0,50.0,-100.00,SSW,200,8.0,13.0,97,0.00,,,0.38,0.000000,,2013-01-29 00:22:00,
2013-01-28 19:33:00,51.0,50.0,-100.00,SSW,200,8.0,13.0,97,0.00,,,0.38,0.000000,,2013-01-29 00:33:00,
2013-01-28 19:42:00,51.0,50.0,-100.00,SSW,200,8.0,13.0,97,0.00,,,0.38,0.000000,,2013-01-29 00:42:00,
2013-01-28 20:12:00,51.0,50.0,-100.00,SSW,193,6.0,11.0,98,0.00,,,0.36,0.000000,,2013-01-29 01:12:00,
2013-01-28 20:23:00,51.0,50.0,-100.00,SSW,193,6.0,11.0,98,0.00,,,0.36,0.000000,,2013-01-29 01:23:00,
2013-01-28 20:32:00,51.0,50.0,-100.00,SSW,193,6.0,11.0,98,0.00,,,0.36,0.000000,,2013-01-29 01:32:00,
2013-01-28 20:42:00,51.0,50.0,-100.00,SSW,193,6.0,11.0,98,0.00,,,0.36,0.000000,,2013-01-29 01:42:00,
2013-01-28 21:12:00,52.0,51.0,-100.00,South,191,5.0,10.0,97,0.00,,,0.31,0.000000,,2013-01-29 02:12:00,
2013-01-28 21:22:00,52.0,51.0,-100.00,South,191,5.0,10.0,97,0.00,,,0.31,0.000000,,2013-01-29 02:22:00,
2013-01-28 21:33:00,52.0,51.0,-100.00,South,191,5.0,10.0,97,0.00,,,0.31,0.000000,,2013-01-29 02:33:00,
2013-01-28 21:42:00,52.0,51.0,-100.00,South,191,5.0,10.0,97,0.00,,,0.31,0.000000,,2013-01-29 02:42:00,
2013-01-28 22:12:00,53.0,52.0,-100.00,SSW,201,7.0,13.0,95,0.00,,,0.26,0.000000,,2013-01-29 03:12:00,
2013-01-28 22:22:00,53.0,52.0,-100.00,SSW,201,7.0,13.0,95,0.00,,,0.26,0.000000,,2013-01-29 03:22:00,
2013-01-28 22:32:00,53.0,52.0,-100.00,SSW,201,7.0,13.0,95,0.00,,,0.26,0.000000,,2013-01-29 03:32:00,
2013-01-28 22:42:00,53.0,52.0,-100.00,SSW,201,7.0,13.0,95,0.00,,,0.26,0.000000,,2013-01-29 03:42:00,
2013-01-28 23:03:00,53.0,51.0,-100.00,SSW,204,10.0,15.0,92,0.00,,,0.20,0.000000,,2013-01-29 04:03:00,
2013-01-28 23:12:00,53.0,51.0,-100.00,SSW,204,10.0,15.0,92,0.00,,,0.20,0.000000,,2013-01-29 04:12:00,
2013-01-28 23:22:00,53.0,51.0,-100.00,SSW,204,10.0,15.0,92,0.00,,,0.20,0.000000,,2013-01-29 04:22:00,
2013-01-28 23:32:00,53.0,51.0,-100.00,SSW,204,10.0,15.0,92,0.00,,,0.20,0.000000,,2013-01-29 04:32:00,
2013-01-28 23:42:00,53.0,51.0,-100.00,SSW,204,10.0,15.0,92,0.00,,,0.20,0.000000,,2013-01-29 04:42:00,